createdAt,value
2022-12-17T00:00:15.571Z,97386.00
2022-12-17T00:05:34.875Z,97385.00
2022-12-17T00:10:54.351Z,97398.00
2022-12-17T00:16:13.923Z,97395.00
2022-12-17T00:21:33.125Z,97398.00
2022-12-17T00:26:53.025Z,97407.00
2022-12-17T00:32:13.345Z,97417.00
2022-12-17T00:37:32.989Z,97423.00
2022-12-17T00:42:52.562Z,97422.00
2022-12-17T00:48:15.541Z,97422.00
2022-12-17T00:53:35.922Z,97431.00
2022-12-17T00:58:55.597Z,97446.00
2022-12-17T01:04:16.028Z,97446.00
2022-12-17T01:09:35.604Z,97455.00
2022-12-17T01:14:55.159Z,97455.00
2022-12-17T01:20:14.615Z,97459.00
2022-12-17T01:25:34.197Z,97467.00
2022-12-17T01:30:56.205Z,97473.00
2022-12-17T01:36:17.025Z,97466.00
2022-12-17T01:41:37.100Z,97465.00
2022-12-17T01:47:02.542Z,97466.00
2022-12-17T01:52:22.059Z,97473.00
2022-12-17T01:57:43.403Z,97488.00
2022-12-17T02:03:03.225Z,97487.00
2022-12-17T02:08:43.179Z,97484.00
2022-12-17T02:14:21.944Z,97497.00
2022-12-17T02:20:38.497Z,97495.00
2022-12-17T02:26:08.034Z,97495.00
2022-12-17T02:31:31.418Z,97504.00
2022-12-17T02:36:53.350Z,97500.00
2022-12-17T02:42:15.900Z,97504.00
2022-12-17T02:47:37.809Z,97495.00
2022-12-17T02:53:00.857Z,97499.00
2022-12-17T02:58:20.352Z,97498.00
2022-12-17T03:03:40.756Z,97503.00
2022-12-17T03:09:01.318Z,97505.00
2022-12-17T03:14:21.148Z,97514.00
2022-12-17T03:19:40.589Z,97521.00
2022-12-17T03:25:00.092Z,97520.00
2022-12-17T03:30:19.806Z,97520.00
2022-12-17T03:35:39.827Z,97526.00
2022-12-17T03:40:59.478Z,97528.00
2022-12-17T03:46:19.001Z,97526.00
2022-12-17T03:51:38.391Z,97537.00
2022-12-17T03:56:57.786Z,97529.00
2022-12-17T04:02:18.421Z,97537.00
2022-12-17T04:07:37.660Z,97536.00
2022-12-17T04:12:57.044Z,97536.00
2022-12-17T04:18:16.481Z,97539.00
2022-12-17T04:23:36.197Z,97552.00
2022-12-17T04:28:55.857Z,97559.00
2022-12-17T04:34:15.379Z,97562.00
2022-12-17T04:39:35.401Z,97571.00
2022-12-17T04:44:54.814Z,97584.00
2022-12-17T04:50:14.525Z,97578.00
2022-12-17T04:55:33.918Z,97593.00
2022-12-17T05:00:53.322Z,97585.00
2022-12-17T05:06:12.869Z,97591.00
2022-12-17T05:11:32.237Z,97595.00
2022-12-17T05:16:51.744Z,97601.00
2022-12-17T05:22:11.134Z,97597.00
2022-12-17T05:27:30.670Z,97601.00
2022-12-17T05:32:50.121Z,97618.00
2022-12-17T05:38:09.780Z,97612.00
2022-12-17T05:43:31.411Z,97625.00
2022-12-17T05:48:52.084Z,97630.00
2022-12-17T05:54:12.360Z,97630.00
2022-12-17T05:59:32.025Z,97639.00
2022-12-17T06:04:51.475Z,97635.00
2022-12-17T06:10:11.441Z,97648.00
2022-12-17T06:15:30.869Z,97655.00
2022-12-17T06:20:50.516Z,97649.00
2022-12-17T06:26:10.922Z,97660.00
2022-12-17T06:31:30.734Z,97670.00
2022-12-17T06:36:50.211Z,97682.00
2022-12-17T06:42:09.665Z,97681.00
2022-12-17T06:47:29.512Z,97687.00
2022-12-17T06:52:49.024Z,97695.00
2022-12-17T06:58:14.875Z,97704.00
2022-12-17T07:03:35.045Z,97705.00
2022-12-17T07:08:55.045Z,97708.00
2022-12-17T07:14:16.488Z,97706.00
2022-12-17T07:19:35.893Z,97724.00
2022-12-17T07:24:55.476Z,97732.00
2022-12-17T07:30:14.942Z,97736.00
2022-12-17T07:35:35.216Z,97750.00
2022-12-17T07:40:54.682Z,97754.00
2022-12-17T07:46:14.683Z,97750.00
2022-12-17T07:51:34.167Z,97756.00
2022-12-17T07:56:53.599Z,97762.00
2022-12-17T08:02:15.003Z,97774.00
2022-12-17T08:07:34.502Z,97781.00
2022-12-17T08:12:53.960Z,97784.00
2022-12-17T08:18:26.348Z,97787.00
2022-12-17T08:23:46.396Z,97795.00
2022-12-17T08:29:05.874Z,97811.00
2022-12-17T08:34:25.890Z,97810.00
2022-12-17T08:39:45.448Z,97807.00
2022-12-17T08:45:05.260Z,97815.00
2022-12-17T08:50:25.886Z,97824.00
2022-12-17T08:55:45.594Z,97822.00
2022-12-17T09:01:05.125Z,97827.00
2022-12-17T09:06:25.018Z,97831.00
2022-12-17T09:11:44.416Z,97838.00
2022-12-17T09:17:03.876Z,97847.00
2022-12-17T09:23:26.986Z,97848.00
2022-12-17T09:28:46.721Z,97857.00
2022-12-17T09:34:06.198Z,97862.00
2022-12-17T09:39:25.700Z,97869.00
2022-12-17T09:44:59.929Z,97872.00
2022-12-17T09:50:22.649Z,97883.00
2022-12-17T09:55:48.284Z,97880.00
2022-12-17T10:01:10.300Z,97881.00
2022-12-17T10:06:34.920Z,97880.00
2022-12-17T10:11:54.454Z,97885.00
2022-12-17T10:17:13.903Z,97885.00
2022-12-17T10:22:39.175Z,97889.00
2022-12-17T10:27:59.567Z,97888.00
2022-12-17T10:33:23.984Z,97895.00
2022-12-17T10:38:48.437Z,97894.00
2022-12-17T10:44:08.085Z,97900.00
2022-12-17T10:49:30.942Z,97902.00
2022-12-17T10:54:52.161Z,97902.00
2022-12-17T11:00:12.159Z,97898.00
2022-12-17T11:05:59.459Z,97910.00
2022-12-17T11:11:22.302Z,97912.00
2022-12-17T11:16:52.829Z,97910.00
2022-12-17T11:22:15.764Z,97913.00
2022-12-17T11:27:42.302Z,97917.00
2022-12-17T11:33:55.346Z,97919.00
2022-12-17T11:39:27.953Z,97912.00
2022-12-17T11:45:31.207Z,97913.00
2022-12-17T11:52:26.870Z,97914.00
2022-12-17T11:59:41.240Z,97913.00
2022-12-17T12:05:22.125Z,97910.00
2022-12-17T12:10:58.821Z,97916.00
2022-12-17T12:20:09.644Z,97912.00
2022-12-17T12:26:34.370Z,97904.00
2022-12-17T12:32:16.348Z,97916.00
2022-12-17T12:37:38.680Z,97917.00
2022-12-17T12:43:08.836Z,97916.00
2022-12-17T12:50:31.666Z,97920.00
2022-12-17T12:55:56.828Z,97907.00
2022-12-17T13:01:16.356Z,97910.00
2022-12-17T13:06:55.482Z,97901.00
2022-12-17T13:13:35.341Z,97903.00
2022-12-17T13:18:41.305Z,97906.00
2022-12-17T13:23:42.837Z,97897.00
2022-12-17T13:29:47.981Z,97896.00
2022-12-17T13:35:08.478Z,97899.00
2022-12-17T13:41:33.945Z,97895.00
2022-12-17T13:46:46.601Z,97903.00
2022-12-17T13:51:59.136Z,97897.00
2022-12-17T13:57:36.718Z,97892.00
2022-12-17T14:02:38.348Z,97908.00
2022-12-17T14:07:39.969Z,97900.00
2022-12-17T14:12:41.150Z,97917.00
2022-12-17T14:17:46.054Z,97914.00
2022-12-17T14:23:33.457Z,97930.00
2022-12-17T14:28:37.424Z,97931.00
2022-12-17T14:33:38.659Z,97938.00
2022-12-17T14:38:42.978Z,97932.00
2022-12-17T14:43:55.350Z,97939.00
2022-12-17T14:49:01.531Z,97941.00
2022-12-17T14:54:29.192Z,97940.00
2022-12-17T14:59:35.712Z,97939.00
2022-12-17T15:04:38.592Z,97939.00
2022-12-17T15:09:42.068Z,97954.00
2022-12-17T15:14:42.858Z,97950.00
2022-12-17T15:19:43.848Z,97958.00
2022-12-17T15:24:45.063Z,97971.00
2022-12-17T15:29:45.941Z,97965.00
2022-12-17T15:34:47.181Z,97966.00
2022-12-17T15:39:48.014Z,97967.00
2022-12-17T15:44:48.745Z,97975.00
2022-12-17T15:49:49.843Z,97976.00
2022-12-17T15:54:50.575Z,97973.00
2022-12-17T15:59:51.374Z,97980.00
2022-12-17T16:04:52.256Z,97978.00
2022-12-17T16:09:53.348Z,97977.00
2022-12-17T16:14:54.187Z,97978.00
2022-12-17T16:19:54.974Z,97984.00
2022-12-17T16:24:55.737Z,97988.00
2022-12-17T16:29:56.514Z,97985.00
2022-12-17T16:34:57.351Z,97990.00
2022-12-17T16:40:00.419Z,97988.00
2022-12-17T16:45:01.623Z,97995.00
2022-12-17T16:50:03.022Z,98003.00
2022-12-17T16:55:04.776Z,98006.00
2022-12-17T17:00:07.011Z,98011.00
2022-12-17T17:05:08.073Z,98009.00
2022-12-17T17:10:09.302Z,98014.00
2022-12-17T17:15:10.448Z,98013.00
2022-12-17T17:20:12.252Z,98014.00
2022-12-17T17:25:13.019Z,98004.00
2022-12-17T17:30:13.820Z,98003.00
2022-12-17T17:35:15.659Z,98014.00
2022-12-17T17:40:16.435Z,98015.00
2022-12-17T17:45:17.175Z,98019.00
2022-12-17T17:50:17.931Z,98006.00
2022-12-17T17:55:18.714Z,98014.00
2022-12-17T18:00:19.649Z,98020.00
2022-12-17T18:05:20.466Z,98031.00
2022-12-17T18:10:21.251Z,98023.00
2022-12-17T18:15:22.316Z,98028.00
2022-12-17T18:20:23.110Z,98034.00
2022-12-17T18:25:23.908Z,98027.00
2022-12-17T18:30:24.701Z,98028.00
2022-12-17T18:35:26.686Z,98024.00
2022-12-17T18:40:32.899Z,98024.00
2022-12-17T18:45:37.619Z,98031.00
2022-12-17T18:50:38.363Z,98039.00
2022-12-17T18:55:40.283Z,98041.00
2022-12-17T19:00:41.108Z,98046.00
2022-12-17T19:05:46.557Z,98047.00
2022-12-17T19:10:49.025Z,98056.00
2022-12-17T19:15:50.153Z,98054.00
2022-12-17T19:20:56.582Z,98065.00
2022-12-17T19:26:08.019Z,98064.00
2022-12-17T19:31:09.453Z,98062.00
2022-12-17T19:36:17.097Z,98070.00
2022-12-17T19:41:18.674Z,98070.00
2022-12-17T19:46:19.894Z,98061.00
2022-12-17T19:51:23.225Z,98064.00
2022-12-17T19:56:27.272Z,98060.00
2022-12-17T20:01:31.403Z,98075.00
2022-12-17T20:06:34.418Z,98076.00
2022-12-17T20:11:36.165Z,98095.00
2022-12-17T20:16:40.526Z,98114.00
2022-12-17T20:21:41.559Z,98105.00
2022-12-17T20:26:44.107Z,98100.00
2022-12-17T20:31:49.930Z,98103.00
2022-12-17T20:36:52.203Z,98090.00
2022-12-17T20:41:53.193Z,98096.00
2022-12-17T20:46:54.787Z,98105.00
2022-12-17T20:51:55.684Z,98106.00
2022-12-17T20:56:56.647Z,98116.00
2022-12-17T21:01:57.475Z,98121.00
2022-12-17T21:06:58.425Z,98106.00
2022-12-17T21:11:59.221Z,98110.00
2022-12-17T21:17:00.469Z,98108.00
2022-12-17T21:22:01.588Z,98115.00
2022-12-17T21:27:02.597Z,98118.00
2022-12-17T21:32:04.115Z,98117.00
2022-12-17T21:37:04.955Z,98105.00
2022-12-17T21:42:29.015Z,98109.00
2022-12-17T21:47:29.849Z,98119.00
2022-12-17T21:52:30.647Z,98121.00
2022-12-17T21:57:31.358Z,98125.00
2022-12-17T22:02:32.356Z,98134.00
2022-12-17T22:07:36.180Z,98128.00
2022-12-17T22:13:01.662Z,98129.00
2022-12-17T22:18:02.610Z,98117.00
2022-12-17T22:23:04.591Z,98119.00
2022-12-17T22:28:05.816Z,98119.00
2022-12-17T22:33:26.312Z,98113.00
2022-12-17T22:44:28.525Z,98117.00
2022-12-17T22:49:41.124Z,98117.00
2022-12-17T22:54:44.820Z,98124.00
2022-12-17T22:59:46.339Z,98127.00
2022-12-17T23:04:47.319Z,98145.00
2022-12-17T23:09:48.273Z,98146.00
2022-12-17T23:14:49.038Z,98144.00
2022-12-17T23:19:49.789Z,98151.00
2022-12-17T23:24:50.729Z,98149.00
2022-12-17T23:29:51.480Z,98150.00
2022-12-17T23:34:52.303Z,98152.00
2022-12-17T23:39:53.142Z,98133.00
2022-12-17T23:44:53.878Z,98132.00
2022-12-17T23:49:54.605Z,98138.00
2022-12-17T23:57:12.942Z,98127.00
